Time;durP1;ratioP1;P1;durP2;ratioP2;P2;SDS_P1;SDS_P2;PMS_P1;PMS_P2;Temp;Humidity;BMP_temperature;BMP_pressure;BME280_temperature;BME280_humidity;BME280_pressure;Samples;Min_cycle;Max_cycle;Signal;HPM_P1;HPM_P2
2020/12/20 00:01:55;;;;;;;17.70;12.02;;;;;;;6.95;95.60;101435.09;5015942;28;20131;-76
2020/12/20 00:04:20;;;;;;;16.23;12.00;;;;;;;7.04;95.66;101447.72;5022700;28;20530;-77
2020/12/20 00:06:46;;;;;;;17.80;12.43;;;;;;;7.05;95.44;101446.75;5010334;28;20480;-77
2020/12/20 00:09:16;;;;;;;19.42;12.18;;;;;;;6.79;95.59;101395.63;5026482;28;20117;-75
2020/12/20 00:11:43;;;;;;;21.25;11.48;;;;;;;6.87;95.52;101411.78;5020059;28;20045;-76
2020/12/20 00:14:27;;;;;;;22.60;11.82;;;;;;;7.07;95.92;101438.66;5021298;28;20056;-75
2020/12/20 00:17:12;;;;;;;20.90;11.57;;;;;;;6.99;95.80;101421.50;5030354;28;20044;-75
2020/12/20 00:19:38;;;;;;;22.35;11.02;;;;;;;7.01;96.16;101435.50;5012707;28;20056;-76
2020/12/20 00:22:11;;;;;;;22.88;12.25;;;;;;;7.05;95.98;101434.31;5005581;28;20068;-76
2020/12/20 00:24:36;;;;;;;23.52;12.80;;;;;;;7.04;96.24;101431.78;5001030;28;20034;-76
2020/12/20 00:27:02;;;;;;;23.75;11.80;;;;;;;7.17;96.01;101443.16;5026097;28;20055;-76
2020/12/20 00:29:28;;;;;;;22.40;12.40;;;;;;;7.20;95.86;101431.47;5037194;28;20408;-76
2020/12/20 00:31:54;;;;;;;24.23;12.52;;;;;;;6.98;95.99;101411.88;5048320;28;20036;-76
2020/12/20 00:34:20;;;;;;;18.25;12.15;;;;;;;7.21;96.28;101441.13;5023496;28;20034;-76
2020/12/20 00:36:46;;;;;;;22.08;12.30;;;;;;;6.94;96.12;101396.25;5039409;28;20117;-75
2020/12/20 00:39:12;;;;;;;20.30;12.32;;;;;;;7.08;96.43;101412.00;5010709;28;20129;-76
2020/12/20 00:41:37;;;;;;;20.63;11.80;;;;;;;7.22;96.24;101442.81;5001744;28;20045;-77
2020/12/20 00:44:03;;;;;;;23.45;12.52;;;;;;;7.01;96.68;101403.66;5044695;28;20120;-77
2020/12/20 00:46:29;;;;;;;20.27;12.18;;;;;;;7.31;96.37;101441.28;5014558;28;20053;-77
2020/12/20 00:48:54;;;;;;;20.98;11.23;;;;;;;7.34;96.83;101443.66;5029578;28;20116;-76
2020/12/20 00:51:20;;;;;;;19.45;12.32;;;;;;;7.37;96.61;101451.41;5026960;28;20132;-76
2020/12/20 00:53:45;;;;;;;21.70;12.13;;;;;;;7.43;97.00;101442.97;5008593;28;20120;-76
2020/12/20 00:56:14;;;;;;;22.00;11.77;;;;;;;7.47;96.99;101430.31;5046033;28;20044;-76
2020/12/20 00:58:40;;;;;;;20.88;12.65;;;;;;;7.58;96.68;101435.63;5032908;28;20056;-75
2020/12/20 01:01:06;;;;;;;20.05;11.30;;;;;;;7.59;96.64;101433.84;5042160;28;20036;-76
2020/12/20 01:03:31;;;;;;;20.40;11.15;;;;;;;7.60;96.27;101444.34;5046079;28;20081;-76
2020/12/20 01:05:57;;;;;;;21.92;11.20;;;;;;;7.56;96.58;101423.44;5047043;28;20120;-76
2020/12/20 01:08:23;;;;;;;20.75;11.32;;;;;;;7.67;96.49;101444.69;5016999;28;20119;-76
2020/12/20 01:10:48;;;;;;;22.52;10.95;;;;;;;7.64;96.40;101443.13;5016288;28;20570;-76
2020/12/20 01:13:14;;;;;;;19.45;10.98;;;;;;;7.51;96.03;101413.19;5038202;28;20115;-76
2020/12/20 01:15:39;;;;;;;21.58;11.27;;;;;;;7.70;96.33;101443.59;5005806;28;20183;-75
2020/12/20 01:18:05;;;;;;;22.98;11.05;;;;;;;7.60;96.06;101424.91;4990911;28;20676;-76
2020/12/20 01:20:30;;;;;;;22.08;11.55;;;;;;;7.71;96.59;101442.63;5012045;28;20647;-76
2020/12/20 01:22:56;;;;;;;25.23;11.70;;;;;;;7.72;96.46;101449.66;5044189;28;20514;-76
2020/12/20 01:25:21;;;;;;;23.55;11.80;;;;;;;7.76;96.16;101443.13;5033169;28;20052;-76
2020/12/20 01:27:47;;;;;;;22.25;12.40;;;;;;;7.73;96.11;101441.59;5041066;28;20129;-76
2020/12/20 01:30:12;;;;;;;19.77;11.63;;;;;;;7.74;96.09;101442.41;5006547;28;20567;-74
2020/12/20 01:32:38;;;;;;;21.33;11.15;;;;;;;7.61;96.32;101438.06;5042677;28;20511;-76
2020/12/20 01:35:04;;;;;;;19.23;10.70;;;;;;;7.67;96.50;101447.34;5037464;28;20573;-78
2020/12/20 01:37:31;;;;;;;21.50;11.40;;;;;;;7.40;96.34;101390.09;5021527;28;20119;-75
2020/12/20 01:39:56;;;;;;;20.95;11.82;;;;;;;7.65;96.20;101447.50;4988359;28;20071;-76
2020/12/20 01:42:22;;;;;;;24.25;12.30;;;;;;;7.63;96.77;101440.59;5018606;28;20586;-76
2020/12/20 01:44:47;;;;;;;18.90;11.10;;;;;;;7.65;96.74;101449.28;5010168;28;20503;-79
2020/12/20 01:47:13;;;;;;;19.50;12.32;;;;;;;7.68;96.43;101445.53;5021676;28;20170;-76
2020/12/20 01:49:38;;;;;;;21.33;11.45;;;;;;;7.59;96.43;101429.34;4995366;28;20124;-76
2020/12/20 01:52:04;;;;;;;17.42;11.65;;;;;;;7.58;96.39;101421.53;5007519;28;20112;-76
2020/12/20 01:54:29;;;;;;;21.75;11.25;;;;;;;7.61;96.21;101426.56;4988936;28;20116;-76
2020/12/20 01:56:55;;;;;;;19.90;10.98;;;;;;;7.52;96.68;101414.88;5003627;28;20658;-76
2020/12/20 01:59:20;;;;;;;23.95;12.20;;;;;;;7.65;96.26;101443.97;5040063;28;20112;-76
2020/12/20 02:01:46;;;;;;;20.20;12.20;;;;;;;7.54;96.32;101420.06;5042978;28;20467;-77
2020/12/20 02:04:11;;;;;;;20.45;12.02;;;;;;;7.65;96.66;101441.31;5010771;28;20507;-75
2020/12/20 02:06:40;;;;;;;19.55;11.68;;;;;;;7.36;96.71;101401.91;5021290;28;20547;-75
2020/12/20 02:09:05;;;;;;;;;;;;;;;7.66;96.74;101440.34;5004706;28;20040;-76
2020/12/20 02:11:31;;;;;;;15.05;10.70;;;;;;;7.68;95.91;101438.44;5023364;28;19925;-76
2020/12/20 02:13:56;;;;;;;21.98;11.07;;;;;;;7.58;96.60;101421.53;5040459;28;20132;-76
2020/12/20 02:16:22;;;;;;;26.17;10.95;;;;;;;7.68;96.27;101438.44;5017930;28;20120;-76
2020/12/20 02:18:48;;;;;;;20.95;11.00;;;;;;;7.67;96.21;101444.69;5011988;28;20037;-78
2020/12/20 02:21:23;;;;;;;19.80;9.63;;;;;;;7.68;96.06;101445.53;5029353;28;20063;-77
2020/12/20 02:23:49;;;;;;;19.63;10.07;;;;;;;7.51;96.01;101421.97;5028034;28;20143;-76
2020/12/20 02:26:16;;;;;;;29.65;11.25;;;;;;;7.61;96.08;101448.69;5029336;28;20076;-77
2020/12/20 02:28:41;;;;;;;21.90;10.68;;;;;;;7.61;96.47;101446.03;5021577;28;20491;-76
2020/12/20 02:31:07;;;;;;;25.25;11.23;;;;;;;7.56;96.64;101442.88;5011520;28;20076;-76
2020/12/20 02:33:32;;;;;;;21.67;10.55;;;;;;;7.54;96.28;101447.44;5024903;28;20057;-76
2020/12/20 02:35:58;;;;;;;24.63;11.63;;;;;;;7.52;97.20;101449.41;5031578;28;20037;-75
2020/12/20 02:38:24;;;;;;;25.65;11.20;;;;;;;7.52;97.03;101449.41;5011167;28;20120;-76
2020/12/20 02:40:49;;;;;;;28.13;11.63;;;;;;;7.47;97.03;101444.41;5036485;28;20077;-76
2020/12/20 02:43:15;;;;;;;20.55;11.57;;;;;;;7.30;96.77;101423.66;5021431;28;20152;-76
2020/12/20 02:45:40;;;;;;;23.63;11.40;;;;;;;7.47;97.18;101446.25;4982939;28;20242;-76
2020/12/20 02:48:06;;;;;;;21.52;10.77;;;;;;;7.59;96.81;101450.59;5035434;28;20160;-76
2020/12/20 02:50:31;;;;;;;24.10;10.55;;;;;;;7.65;96.67;101458.13;5044619;28;20120;-76
2020/12/20 02:52:57;;;;;;;20.25;10.23;;;;;;;7.58;96.63;101445.44;5048350;28;20136;-76
2020/12/20 02:55:22;;;;;;;24.92;11.25;;;;;;;7.68;95.48;101453.50;5002684;28;20120;-76
2020/12/20 02:57:48;;;;;;;21.40;10.27;;;;;;;7.68;95.60;101459.69;5013397;28;20117;-76
2020/12/20 03:00:13;;;;;;;26.02;10.55;;;;;;;7.56;95.44;101450.84;5010829;28;20543;-76
2020/12/20 03:02:39;;;;;;;19.30;9.73;;;;;;;7.51;95.46;101431.78;5032299;28;20471;-75
2020/12/20 03:05:04;;;;;;;21.65;9.98;;;;;;;7.43;95.58;101416.44;5021504;28;20124;-77
2020/12/20 03:07:30;;;;;;;20.13;10.13;;;;;;;7.55;95.48;101446.47;5018550;28;20116;-76
2020/12/20 03:09:55;;;;;;;25.85;10.00;;;;;;;7.63;95.02;101453.88;5027213;28;20136;-77
2020/12/20 03:12:24;;;;;;;22.90;10.25;;;;;;;7.60;95.11;101454.13;5001940;28;20128;-76
2020/12/20 03:14:49;;;;;;;19.63;10.27;;;;;;;7.56;95.22;101463.28;5007208;28;20534;-76
2020/12/20 03:17:15;;;;;;;20.02;9.85;;;;;;;7.51;95.72;101474.25;5043409;28;20116;-76
2020/12/20 03:19:40;;;;;;;19.90;9.80;;;;;;;7.31;95.84;101434.13;5022017;28;20072;-76
2020/12/20 03:22:06;;;;;;;17.83;9.82;;;;;;;7.32;95.61;101442.97;4999101;28;20133;-77
2020/12/20 03:24:32;;;;;;;22.02;10.52;;;;;;;7.44;95.70;101473.88;5029160;28;20064;-76
2020/12/20 03:26:57;;;;;;;18.10;9.73;;;;;;;7.39;96.24;101476.03;5041133;28;20111;-76
2020/12/20 03:29:23;;;;;;;18.00;9.85;;;;;;;7.37;95.88;101471.81;5046111;28;20068;-76
2020/12/20 03:31:48;;;;;;;26.67;9.93;;;;;;;7.31;95.87;101458.03;5045396;28;20112;-76
2020/12/20 03:34:14;;;;;;;17.08;9.25;;;;;;;7.32;96.09;101469.50;5026602;28;20124;-76
2020/12/20 03:36:39;;;;;;;20.05;9.77;;;;;;;7.22;96.44;101472.00;5055783;28;20116;-76
2020/12/20 03:39:05;;;;;;;18.40;9.82;;;;;;;7.24;96.24;101469.22;5040770;28;20152;-75
2020/12/20 03:41:30;;;;;;;25.58;9.45;;;;;;;7.16;96.31;101460.06;4998079;28;20073;-76
2020/12/20 03:43:56;;;;;;;23.67;10.18;;;;;;;7.17;96.37;101474.16;5007326;28;20670;-75
2020/12/20 03:46:21;;;;;;;19.10;9.55;;;;;;;7.18;96.03;101473.19;5007882;28;20121;-75
2020/12/20 03:48:47;;;;;;;20.05;8.82;;;;;;;7.19;96.25;101466.94;5004245;28;20113;-76
2020/12/20 03:51:12;;;;;;;23.70;10.45;;;;;;;6.96;96.27;101423.53;5005910;28;20193;-75
2020/12/20 03:53:38;;;;;;;20.27;9.20;;;;;;;7.18;96.15;101466.09;4980127;28;20188;-75
2020/12/20 03:56:04;;;;;;;17.20;9.20;;;;;;;6.38;96.16;101337.59;4979725;28;20138;-76
2020/12/20 03:58:30;;;;;;;21.27;10.38;;;;;;;7.08;96.35;101462.41;5007539;28;20037;-76
2020/12/20 04:00:55;;;;;;;20.70;9.95;;;;;;;7.11;96.55;101466.66;5001623;28;20113;-76
2020/12/20 04:03:21;;;;;;;23.17;10.45;;;;;;;6.81;96.48;101420.22;5007152;28;20133;-76
2020/12/20 04:05:46;;;;;;;27.70;10.40;;;;;;;7.08;96.75;101457.09;5003002;28;20572;-77
2020/12/20 04:08:12;;;;;;;19.30;10.40;;;;;;;7.12;96.78;101463.88;5005663;28;20121;-76
2020/12/20 04:10:37;;;;;;;16.60;9.48;;;;;;;6.99;96.69;101463.13;4987681;28;20038;-76
2020/12/20 04:13:03;;;;;;;18.35;9.35;;;;;;;7.07;97.00;101468.69;5004070;28;20125;-76
2020/12/20 04:15:28;;;;;;;22.90;10.13;;;;;;;7.05;96.79;101463.50;5003567;28;20247;-76
2020/12/20 04:17:55;;;;;;;21.95;9.60;;;;;;;7.01;96.97;101477.94;5007245;28;20470;-76
2020/12/20 04:20:20;;;;;;;21.85;9.32;;;;;;;7.11;97.21;101479.94;5006355;28;20623;-77
2020/12/20 04:22:46;;;;;;;20.02;10.05;;;;;;;7.00;96.73;101459.50;4989766;28;20132;-79
2020/12/20 04:25:11;;;;;;;17.33;9.55;;;;;;;7.04;96.82;101463.63;5000894;28;20113;-77
2020/12/20 04:27:37;;;;;;;20.67;10.10;;;;;;;7.14;96.57;101472.59;4987210;28;20129;-76
2020/12/20 04:30:03;;;;;;;19.10;9.38;;;;;;;7.14;97.15;101472.59;5006363;28;20716;-76
2020/12/20 04:32:29;;;;;;;21.10;9.20;;;;;;;7.09;97.05;101473.91;5008262;28;20099;-77
2020/12/20 04:34:54;;;;;;;14.82;9.88;;;;;;;7.10;97.20;101481.72;4999812;28;20128;-75
2020/12/20 04:37:20;;;;;;;20.83;9.68;;;;;;;7.16;97.17;101480.44;4999415;28;20470;-75
2020/12/20 04:39:45;;;;;;;18.42;9.02;;;;;;;7.21;96.27;101478.28;4981574;28;20137;-76
2020/12/20 04:42:11;;;;;;;21.55;10.23;;;;;;;7.23;96.71;101473.72;4995086;28;20459;-75
2020/12/20 04:44:36;;;;;;;22.27;10.30;;;;;;;7.18;96.60;101476.72;4995173;28;20552;-76
2020/12/20 04:47:02;;;;;;;17.10;9.30;;;;;;;7.15;96.91;101473.41;5003934;28;20117;-75
2020/12/20 04:49:29;;;;;;;24.05;10.32;;;;;;;6.98;97.14;101446.38;4981947;28;20050;-75
2020/12/20 04:51:55;;;;;;;24.17;11.65;;;;;;;7.14;97.09;101471.72;4983992;28;20120;-75
2020/12/20 04:54:21;;;;;;;23.70;10.30;;;;;;;7.16;97.23;101472.47;4982472;28;20037;-75
2020/12/20 04:56:46;;;;;;;24.50;10.75;;;;;;;7.17;97.45;101468.84;4981125;28;20117;-76
2020/12/20 04:59:12;;;;;;;19.08;10.27;;;;;;;7.12;97.02;101469.19;5000660;28;20453;-75
2020/12/20 05:01:37;;;;;;;18.95;9.77;;;;;;;7.15;96.89;101468.97;5014601;28;20108;-76
2020/12/20 05:04:03;;;;;;;25.15;10.93;;;;;;;7.12;97.04;101473.69;4994705;28;20125;-76
2020/12/20 05:06:29;;;;;;;19.85;10.60;;;;;;;7.12;97.12;101471.84;5002692;28;20116;-75
2020/12/20 05:08:59;;;;;;;22.23;10.05;;;;;;;7.06;97.33;101461.69;4983629;28;20124;-76
2020/12/20 05:11:34;;;;;;;23.67;10.60;;;;;;;6.92;97.12;101440.66;4980675;28;20073;-75
2020/12/20 05:14:00;;;;;;;18.90;9.88;;;;;;;6.93;96.78;101461.78;4984176;28;20125;-75
2020/12/20 05:16:51;;;;;;;21.63;9.95;;;;;;;7.20;96.76;101472.09;5000312;28;20153;-76
2020/12/20 05:19:17;;;;;;;16.48;8.95;;;;;;;7.16;96.84;101473.31;4980241;28;20057;-76
2020/12/20 05:21:46;;;;;;;22.10;10.32;;;;;;;7.15;96.40;101471.63;4966410;28;20149;-75
2020/12/20 05:24:38;;;;;;;25.92;10.43;;;;;;;7.14;96.86;101477.91;4985808;28;20040;-75
2020/12/20 05:27:03;;;;;;;19.38;9.90;;;;;;;7.07;96.84;101483.78;4990690;28;20054;-76
2020/12/20 05:29:29;;;;;;;23.08;10.25;;;;;;;7.07;96.67;101481.13;4999551;28;20121;-76
2020/12/20 05:31:55;;;;;;;23.02;9.95;;;;;;;6.72;97.25;101427.06;4998278;28;20252;-76
2020/12/20 05:34:21;;;;;;;22.48;10.48;;;;;;;7.08;97.17;101482.81;4979978;28;20177;-76
2020/12/20 05:36:46;;;;;;;20.25;10.18;;;;;;;7.08;97.04;101488.13;4993244;28;20790;-77
2020/12/20 05:39:16;;;;;;;23.60;10.15;;;;;;;6.76;96.86;101422.38;5004849;28;20141;-75
2020/12/20 05:41:42;;;;;;;28.08;10.00;;;;;;;7.09;96.75;101471.25;5013920;28;20048;-76
2020/12/20 05:44:11;;;;;;;25.58;9.88;;;;;;;7.08;96.74;101475.69;5016996;28;20580;-75
2020/12/20 05:46:38;;;;;;;20.15;9.30;;;;;;;7.06;96.82;101467.00;5019050;28;20461;-75
2020/12/20 05:49:19;;;;;;;22.42;9.55;;;;;;;7.15;97.13;101489.34;5010253;28;20043;-76
2020/12/20 05:52:12;;;;;;;20.33;9.07;;;;;;;7.04;97.52;101466.28;5008030;28;20041;-78
2020/12/20 05:54:41;;;;;;;22.48;8.95;;;;;;;7.08;97.28;101478.34;5024050;28;20049;-76
2020/12/20 05:57:15;;;;;;;24.60;9.55;;;;;;;7.17;97.30;101490.94;5025398;28;20047;-77
2020/12/20 05:59:41;;;;;;;26.27;9.13;;;;;;;7.03;97.36;101470.72;5002528;28;20032;-75
2020/12/20 06:02:07;;;;;;;23.27;9.88;;;;;;;7.17;97.59;101488.28;5015455;28;20045;-76
2020/12/20 06:04:33;;;;;;;26.65;9.70;;;;;;;6.61;97.17;101390.72;5034697;28;20086;-75
2020/12/20 06:06:59;;;;;;;25.58;8.57;;;;;;;6.98;97.50;101454.31;5024902;28;20036;-75
2020/12/20 06:09:25;;;;;;;27.75;10.13;;;;;;;7.25;97.13;101484.19;5006594;28;20032;-76
2020/12/20 06:11:52;;;;;;;28.67;9.70;;;;;;;7.28;97.23;101490.13;5022059;28;20407;-75
2020/12/20 06:14:19;;;;;;;23.70;9.00;;;;;;;7.25;97.06;101490.38;5042456;28;20045;-76
2020/12/20 06:16:46;;;;;;;21.25;8.55;;;;;;;7.28;96.85;101495.44;5016661;28;20037;-77
2020/12/20 06:19:11;;;;;;;22.25;9.40;;;;;;;7.24;97.09;101499.28;5016984;28;20064;-76
2020/12/20 06:21:59;;;;;;;21.00;9.40;;;;;;;7.24;97.05;101493.13;5008164;28;20120;-76
2020/12/20 06:24:26;;;;;;;31.15;10.05;;;;;;;7.23;97.20;101500.25;5020437;28;20435;-77
2020/12/20 06:26:55;;;;;;;19.90;9.13;;;;;;;7.20;97.27;101496.00;5049005;28;20070;-76
2020/12/20 06:29:20;;;;;;;21.88;9.73;;;;;;;7.24;97.18;101501.94;5008027;28;20029;-76
2020/12/20 06:31:46;;;;;;;21.60;8.95;;;;;;;6.81;97.27;101438.81;5028679;28;20140;-77
2020/12/20 06:34:14;;;;;;;23.23;8.55;;;;;;;7.09;97.12;101488.00;5015576;28;20562;-76
2020/12/20 06:36:39;;;;;;;22.13;8.93;;;;;;;7.02;96.84;101481.47;5021378;28;20035;-76
2020/12/20 06:39:05;;;;;;;27.88;10.05;;;;;;;7.22;97.22;101510.97;5004457;28;20753;-76
2020/12/20 06:41:34;;;;;;;22.83;8.90;;;;;;;7.05;97.22;101484.72;5040198;28;20152;-76
2020/12/20 06:44:00;;;;;;;22.85;9.48;;;;;;;7.20;96.77;101511.09;4996681;28;20052;-76
2020/12/20 06:46:38;;;;;;;21.38;9.20;;;;;;;6.97;96.80;101467.69;5051825;28;20606;-76
2020/12/20 06:49:32;;;;;;;19.10;9.40;;;;;;;7.17;96.86;101514.84;5008547;28;20057;-76
2020/12/20 06:52:20;;;;;;;26.85;10.05;;;;;;;7.20;96.82;101524.38;5008666;28;20037;-76
2020/12/20 06:55:04;;;;;;;28.23;8.82;;;;;;;6.93;97.12;101485.66;5032710;28;20041;-76
2020/12/20 06:57:30;;;;;;;22.73;9.57;;;;;;;6.80;96.66;101472.44;5006169;28;20041;-76
2020/12/20 06:59:55;;;;;;;20.65;8.63;;;;;;;7.10;96.64;101518.06;5029018;28;20039;-76
2020/12/20 07:02:43;;;;;;;26.27;9.68;;;;;;;7.07;97.09;101526.25;5019410;28;20120;-76
2020/12/20 07:05:40;;;;;;;29.50;10.05;;;;;;;7.05;97.14;101518.41;5013560;28;20542;-76
2020/12/20 07:08:18;;;;;;;25.70;8.38;;;;;;;7.05;96.99;101519.25;5037186;28;20191;-75
2020/12/20 07:10:45;;;;;;;23.92;9.07;;;;;;;7.03;96.91;101521.16;5041003;28;20106;-76
2020/12/20 07:13:11;;;;;;;26.00;9.68;;;;;;;6.93;97.44;101520.16;5025117;28;20087;-75
2020/12/20 07:15:44;;;;;;;27.27;9.38;;;;;;;6.68;96.93;101484.81;4995456;28;20474;-74
2020/12/20 07:18:10;;;;;;;24.00;9.13;;;;;;;6.94;97.19;101523.63;5012152;28;20045;-75
2020/12/20 07:20:35;;;;;;;23.80;8.93;;;;;;;6.91;97.10;101534.50;5004863;28;20120;-76
2020/12/20 07:23:01;;;;;;;23.88;9.52;;;;;;;6.84;97.11;101539.41;5017698;28;20131;-74
2020/12/20 07:25:27;;;;;;;23.20;9.82;;;;;;;6.83;97.46;101532.41;5014104;28;20035;-76
2020/12/20 07:27:53;;;;;;;26.77;9.20;;;;;;;6.68;97.40;101513.97;5002447;28;20511;-76
2020/12/20 07:30:18;;;;;;;23.77;10.15;;;;;;;6.82;97.28;101534.19;4996304;28;20125;-77
2020/12/20 07:32:44;;;;;;;20.08;9.23;;;;;;;6.69;97.54;101523.63;5024855;28;20112;-74
2020/12/20 07:35:15;;;;;;;26.92;9.93;;;;;;;6.74;97.43;101541.88;5016244;28;20119;-76
2020/12/20 07:37:53;;;;;;;23.90;9.30;;;;;;;6.55;97.92;101510.53;5034033;28;20057;-76
2020/12/20 07:40:19;;;;;;;25.20;10.40;;;;;;;6.71;98.17;101545.59;5048577;28;20084;-76
2020/12/20 07:42:44;;;;;;;27.13;10.30;;;;;;;6.65;97.85;101524.81;5046942;28;20535;-77
2020/12/20 07:45:13;;;;;;;22.10;10.02;;;;;;;6.80;97.95;101552.00;5013161;28;20065;-76
2020/12/20 07:47:39;;;;;;;29.88;10.27;;;;;;;6.78;97.91;101553.09;5005837;28;20052;-76
2020/12/20 07:50:04;;;;;;;27.75;10.38;;;;;;;6.75;97.93;101551.53;5029850;28;20135;-76
2020/12/20 07:52:30;;;;;;;22.80;10.00;;;;;;;6.54;97.82;101530.03;5032569;28;20132;-76
2020/12/20 07:54:57;;;;;;;22.63;10.02;;;;;;;6.72;98.49;101573.78;5024440;28;20120;-76
2020/12/20 07:57:23;;;;;;;30.73;10.32;;;;;;;6.58;98.32;101564.19;4995149;28;20021;-75
2020/12/20 08:00:00;;;;;;;33.75;10.13;;;;;;;6.58;98.27;101561.53;4991957;28;20117;-77
2020/12/20 08:02:26;;;;;;;29.52;10.27;;;;;;;6.70;98.59;101578.38;5044500;28;20098;-75
2020/12/20 08:05:05;;;;;;;30.63;9.80;;;;;;;6.73;98.67;101585.25;5028988;28;20120;-76
2020/12/20 08:07:31;;;;;;;35.17;11.32;;;;;;;6.77;98.59;101588.53;5012728;28;20088;-76
2020/12/20 08:09:56;;;;;;;25.88;9.35;;;;;;;6.79;98.57;101579.50;5034624;28;20072;-76
2020/12/20 08:12:22;;;;;;;27.55;9.65;;;;;;;6.79;98.63;101589.28;5026195;28;20128;-75
2020/12/20 08:14:47;;;;;;;26.50;10.40;;;;;;;6.82;98.44;101589.06;5041979;28;20131;-76
2020/12/20 08:17:18;;;;;;;32.70;9.57;;;;;;;6.29;98.25;101499.97;5000777;28;20373;-77
2020/12/20 08:19:44;;;;;;;31.67;10.32;;;;;;;6.76;98.62;101573.56;4999711;28;20025;-76
2020/12/20 08:22:14;;;;;;;31.58;9.60;;;;;;;6.94;98.47;101590.84;5015405;28;20526;-78
2020/12/20 08:24:46;;;;;;;29.77;9.85;;;;;;;6.75;98.23;101554.16;5017583;28;20042;-78
2020/12/20 08:27:15;;;;;;;24.98;8.80;;;;;;;7.02;97.73;101599.06;4993161;28;20043;-78
2020/12/20 08:30:00;;;;;;;22.80;8.35;;;;;;;7.04;97.79;101591.84;5007649;28;20045;-76
2020/12/20 08:32:36;;;;;;;25.45;8.73;;;;;;;7.08;98.15;101602.25;5009857;28;20483;-77
2020/12/20 08:35:18;;;;;;;26.35;9.40;;;;;;;7.14;97.02;101604.44;5022766;28;20084;-82
2020/12/20 08:37:44;;;;;;;36.05;9.80;;;;;;;7.17;97.37;101606.88;5037565;28;20483;-77
2020/12/20 08:40:10;;;;;;;28.63;9.52;;;;;;;7.19;97.40;101599.66;5020700;28;20052;-77
2020/12/20 08:42:35;;;;;;;29.63;8.27;;;;;;;6.69;97.37;101515.69;5026904;28;20517;-77
2020/12/20 08:45:19;;;;;;;26.13;8.75;;;;;;;7.12;96.98;101596.59;5014164;28;20120;-77
2020/12/20 08:47:44;;;;;;;27.73;9.20;;;;;;;7.25;97.10;101614.28;4998021;28;20175;-76
2020/12/20 08:50:11;;;;;;;25.80;9.93;;;;;;;7.11;97.10;101589.59;5006397;28;20083;-77
2020/12/20 08:52:36;;;;;;;28.52;9.45;;;;;;;7.23;97.06;101617.06;5020648;28;20055;-77
2020/12/20 08:55:04;;;;;;;25.55;8.65;;;;;;;7.26;96.81;101613.31;5034987;28;20048;-77
2020/12/20 08:57:30;;;;;;;24.63;8.88;;;;;;;7.29;97.25;101613.94;5037032;28;20045;-77
2020/12/20 09:00:19;;;;;;;29.92;8.50;;;;;;;7.38;96.94;101615.06;5016876;28;20037;-78
2020/12/20 09:02:45;;;;;;;30.42;11.32;;;;;;;7.43;96.55;101617.38;5041939;28;20145;-77
2020/12/20 09:05:14;;;;;;;27.02;9.50;;;;;;;7.44;96.29;101627.06;5032489;28;20033;-77
2020/12/20 09:07:40;;;;;;;22.45;8.65;;;;;;;7.44;95.66;101621.75;5035180;28;20047;-77
2020/12/20 09:10:25;;;;;;;26.77;9.05;;;;;;;7.48;96.71;101625.88;5011988;28;20083;-77
2020/12/20 09:12:54;;;;;;;20.25;7.60;;;;;;;7.54;96.09;101628.06;5010613;28;20090;-77
2020/12/20 09:15:33;;;;;;;28.05;8.30;;;;;;;7.54;96.07;101635.19;5024068;28;20207;-77
2020/12/20 09:17:59;;;;;;;29.80;8.77;;;;;;;7.44;96.12;101614.63;5008118;28;20055;-77
2020/12/20 09:20:29;;;;;;;29.27;9.80;;;;;;;7.60;95.58;101646.22;4998991;28;22191;-77
2020/12/20 09:23:04;;;;;;;29.80;9.48;;;;;;;7.61;95.69;101636.41;4997870;28;20037;-77
2020/12/20 09:25:31;;;;;;;27.08;8.68;;;;;;;7.43;95.10;101594.34;5025315;28;20495;-77
2020/12/20 09:27:59;;;;;;;24.98;7.93;;;;;;;7.73;95.21;101647.94;4997619;28;20064;-77
2020/12/20 09:30:31;;;;;;;33.92;8.77;;;;;;;7.76;94.62;101637.94;5002073;28;20033;-77
2020/12/20 09:32:57;;;;;;;28.52;9.23;;;;;;;7.81;95.18;101637.59;4993138;28;20091;-75
2020/12/20 09:35:22;;;;;;;32.05;8.38;;;;;;;7.87;94.61;101638.97;5005566;28;20731;-75
2020/12/20 09:37:48;;;;;;;31.33;8.93;;;;;;;7.90;95.13;101633.38;5011461;28;20032;-75
2020/12/20 09:40:13;;;;;;;25.10;7.68;;;;;;;7.93;94.12;101639.34;5026226;28;20059;-75
2020/12/20 09:42:42;;;;;;;22.25;7.75;;;;;;;7.96;94.67;101643.56;5029106;28;20039;-75
2020/12/20 09:45:08;;;;;;;33.13;9.13;;;;;;;7.82;94.56;101618.88;5024693;28;20163;-83
2020/12/20 09:47:41;;;;;;;33.95;7.25;;;;;;;8.05;94.21;101639.38;4987018;28;21036;-78
2020/12/20 09:50:07;;;;;;;28.25;8.45;;;;;;;7.92;93.98;101627.00;5019986;28;20028;-76
2020/12/20 09:52:33;;;;;;;28.45;8.27;;;;;;;7.85;94.13;101593.88;4974152;28;20503;-75
2020/12/20 09:54:59;;;;;;;23.35;7.93;;;;;;;8.14;94.42;101630.69;5021241;28;20122;-76
2020/12/20 09:57:25;;;;;;;25.33;8.40;;;;;;;8.23;94.05;101642.41;5004309;28;20496;-76
2020/12/20 09:59:51;;;;;;;25.20;7.63;;;;;;;7.99;93.23;101592.84;5008242;28;20041;-77
2020/12/20 10:02:16;;;;;;;26.13;8.30;;;;;;;8.39;94.05;101645.59;4991799;28;20091;-76
2020/12/20 10:04:42;;;;;;;26.30;8.30;;;;;;;8.23;93.81;101606.03;5001956;28;20124;-76
2020/12/20 10:07:07;;;;;;;29.75;9.10;;;;;;;8.50;93.07;101639.44;5017392;28;20197;-76
2020/12/20 10:09:33;;;;;;;27.95;8.25;;;;;;;7.97;92.23;101544.25;5016621;28;20069;-76
2020/12/20 10:11:58;;;;;;;34.83;9.63;;;;;;;8.58;92.22;101638.84;5011389;28;20207;-76
2020/12/20 10:14:24;;;;;;;29.23;8.27;;;;;;;8.66;92.29;101640.91;5036144;28;20113;-76
2020/12/20 10:16:56;;;;;;;19.52;7.97;;;;;;;8.62;92.39;101634.16;5024474;28;20131;-76
2020/12/20 10:19:21;;;;;;;27.58;8.68;;;;;;;8.58;92.21;101631.72;4997048;28;20053;-76
2020/12/20 10:21:50;;;;;;;27.73;9.45;;;;;;;8.55;92.55;101634.63;5039970;28;20139;-76
2020/12/20 10:24:16;;;;;;;29.38;9.07;;;;;;;8.62;92.42;101631.50;5012003;28;20159;-76
2020/12/20 10:26:45;;;;;;;25.70;8.73;;;;;;;8.37;91.85;101593.47;5021827;28;20047;-77
2020/12/20 10:29:13;;;;;;;32.83;9.02;;;;;;;8.62;91.81;101620.84;5019577;28;20066;-76
2020/12/20 10:31:42;;;;;;;24.20;9.13;;;;;;;8.49;92.17;101605.00;5018187;28;20033;-76
2020/12/20 10:34:08;;;;;;;26.70;9.23;;;;;;;8.73;91.44;101629.66;5015626;28;20605;-76
2020/12/20 10:36:34;;;;;;;34.50;9.32;;;;;;;8.53;91.25;101596.66;5018603;28;20045;-76
2020/12/20 10:39:00;;;;;;;31.58;10.57;;;;;;;8.77;91.71;101638.25;5001523;28;20483;-76
2020/12/20 10:41:25;;;;;;;29.90;9.05;;;;;;;8.82;91.49;101630.75;5025674;28;20136;-76
2020/12/20 10:43:51;;;;;;;34.17;11.70;;;;;;;8.81;91.89;101622.91;5026008;28;20120;-78
2020/12/20 10:46:16;;;;;;;27.55;10.35;;;;;;;8.88;90.99;101632.06;5014671;28;20064;-76
2020/12/20 10:48:42;;;;;;;35.45;9.75;;;;;;;8.90;91.12;101635.47;5020570;28;20124;-76
2020/12/20 10:51:10;;;;;;;29.55;10.30;;;;;;;8.78;91.23;101617.81;5000872;28;20604;-77
2020/12/20 10:53:36;;;;;;;31.55;10.57;;;;;;;8.96;90.92;101631.47;5038474;28;20043;-76
2020/12/20 10:56:02;;;;;;;29.05;9.75;;;;;;;8.95;91.07;101635.94;4992508;28;20044;-77
2020/12/20 10:58:27;;;;;;;28.60;9.25;;;;;;;8.96;91.18;101636.78;5017099;28;20136;-76
2020/12/20 11:00:53;;;;;;;31.60;9.25;;;;;;;8.94;90.79;101625.41;5006705;28;20140;-76
2020/12/20 11:03:18;;;;;;;31.33;9.93;;;;;;;8.99;90.67;101631.22;5020226;28;20136;-76
2020/12/20 11:05:44;;;;;;;29.15;9.68;;;;;;;9.07;90.92;101628.78;5026166;28;20121;-77
2020/12/20 11:08:10;;;;;;;29.77;9.55;;;;;;;9.16;91.28;101619.19;5040898;28;20136;-76
2020/12/20 11:10:35;;;;;;;29.55;9.00;;;;;;;9.26;90.24;101636.13;5008764;28;20123;-76
2020/12/20 11:13:01;;;;;;;25.90;8.98;;;;;;;9.30;89.96;101618.91;5006866;28;20167;-76
2020/12/20 11:15:26;;;;;;;29.75;9.60;;;;;;;9.27;90.23;101629.00;5039578;28;20472;-76
2020/12/20 11:17:52;;;;;;;24.42;9.60;;;;;;;9.37;91.09;101631.72;5022285;28;20136;-76
2020/12/20 11:20:18;;;;;;;26.33;8.77;;;;;;;9.43;90.99;101634.72;5005343;28;20132;-76
2020/12/20 11:22:43;;;;;;;24.52;9.15;;;;;;;9.41;90.71;101625.19;5007992;28;20682;-76
2020/12/20 11:25:09;;;;;;;32.47;9.38;;;;;;;9.54;90.45;101643.69;5008885;28;20097;-76